Time;durP1;ratioP1;P1;durP2;ratioP2;P2;SDS_P1;SDS_P2;PMS_P1;PMS_P2;Temp;Humidity;BMP_temperature;BMP_pressure;BME280_temperature;BME280_humidity;BME280_pressure;Samples;Min_cycle;Max_cycle;Signal;HPM_P1;HPM_P2
2021/09/04 00:02:13;;;;;;;36.42;23.20;;;;;;;;;;5037377;28;20135;-66
2021/09/04 00:04:40;;;;;;;37.03;25.48;;;;;;;;;;5054924;28;20036;-67
2021/09/04 00:07:06;;;;;;;38.28;24.63;;;;;;;;;;5055168;28;20059;-66
2021/09/04 00:09:33;;;;;;;36.33;25.83;;;;;;;;;;5036978;28;20033;-67
2021/09/04 00:11:59;;;;;;;35.50;24.38;;;;;;;;;;5036905;28;20032;-66
2021/09/04 00:14:25;;;;;;;33.47;24.77;;;;;;;;;;5054872;28;20060;-66
2021/09/04 00:16:51;;;;;;;38.05;25.63;;;;;;;;;;5054848;28;20071;-66
2021/09/04 00:19:20;;;;;;;35.80;26.98;;;;;;;;;;5037175;28;20031;-66
2021/09/04 00:21:46;;;;;;;38.05;27.45;;;;;;;;;;5037097;28;20029;-66
2021/09/04 00:24:12;;;;;;;34.60;24.42;;;;;;;;;;5054615;28;20074;-66
2021/09/04 00:26:38;;;;;;;36.67;24.67;;;;;;;;;;5037120;28;20549;-66
2021/09/04 00:29:04;;;;;;;34.60;26.35;;;;;;;;;;5054546;28;20021;-65
2021/09/04 00:31:30;;;;;;;37.60;26.95;;;;;;;;;;5036991;28;20154;-65
2021/09/04 00:33:56;;;;;;;36.20;25.10;;;;;;;;;;5036629;28;20033;-65
2021/09/04 00:36:22;;;;;;;34.85;25.80;;;;;;;;;;5036928;28;20025;-65
2021/09/04 00:38:48;;;;;;;38.92;27.02;;;;;;;;;;5036789;28;20423;-65
2021/09/04 00:41:18;;;;;;;40.40;26.85;;;;;;;;;;5054760;28;20017;-66
2021/09/04 00:43:44;;;;;;;42.10;27.90;;;;;;;;;;5020227;28;20176;-65
2021/09/04 00:46:11;;;;;;;39.88;25.60;;;;;;;;;;5036850;28;20044;-65
2021/09/04 00:48:38;;;;;;;35.28;24.95;;;;;;;;;;5036568;28;20037;-66
2021/09/04 00:51:04;;;;;;;37.13;25.10;;;;;;;;;;5036446;28;20025;-65
2021/09/04 00:53:30;;;;;;;36.85;24.50;;;;;;;;;;5036418;28;20132;-65
2021/09/04 00:55:57;;;;;;;41.13;26.73;;;;;;;;;;5054445;28;20489;-65
2021/09/04 00:58:23;;;;;;;38.88;26.80;;;;;;;;;;5036675;28;20477;-65
2021/09/04 01:00:53;;;;;;;36.17;25.50;;;;;;;;;;5036783;28;20029;-65
2021/09/04 01:03:20;;;;;;;35.97;24.83;;;;;;;;;;5053448;28;20028;-65
2021/09/04 01:05:49;;;;;;;42.58;27.38;;;;;;;;;;5054529;28;20382;-64
2021/09/04 01:08:15;;;;;;;38.10;27.30;;;;;;;;;;5036325;28;20489;-64
2021/09/04 01:10:41;;;;;;;41.67;26.83;;;;;;;;;;5036830;28;20025;-64
2021/09/04 01:13:07;;;;;;;39.40;26.67;;;;;;;;;;5054019;28;20024;-64
2021/09/04 01:15:36;;;;;;;42.53;28.13;;;;;;;;;;5036259;28;20496;-64
2021/09/04 01:18:02;;;;;;;;;;;;;;;;;;5054483;28;20025;-65
2021/09/04 01:20:28;;;;;;;39.83;27.95;;;;;;;;;;5036089;28;20356;-65
2021/09/04 01:22:53;;;;;;;41.22;26.88;;;;;;;;;;5035781;28;20017;-66
2021/09/04 01:25:23;;;;;;;43.30;27.25;;;;;;;;;;5035713;28;20429;-65
2021/09/04 01:27:50;;;;;;;39.53;27.52;;;;;;;;;;5053759;28;20029;-66
2021/09/04 01:30:16;;;;;;;36.60;27.65;;;;;;;;;;5053817;28;20043;-64
2021/09/04 01:32:42;;;;;;;39.40;27.63;;;;;;;;;;5053693;28;20100;-65
2021/09/04 01:35:09;;;;;;;42.92;28.77;;;;;;;;;;5036287;28;20392;-65
2021/09/04 01:37:35;;;;;;;40.03;26.73;;;;;;;;;;5053747;28;20176;-65
2021/09/04 01:40:01;;;;;;;37.95;28.35;;;;;;;;;;5035609;28;20021;-65
2021/09/04 01:42:27;;;;;;;38.92;28.08;;;;;;;;;;5053448;28;20032;-66
2021/09/04 01:44:53;;;;;;;39.17;28.42;;;;;;;;;;5052936;28;20489;-65
2021/09/04 01:47:19;;;;;;;45.45;31.52;;;;;;;;;;5053240;28;20036;-65
2021/09/04 01:49:45;;;;;;;43.13;30.23;;;;;;;;;;5035461;28;20029;-65
2021/09/04 01:52:11;;;;;;;49.10;32.58;;;;;;;;;;5035743;28;20056;-65
2021/09/04 01:54:37;;;;;;;44.78;30.63;;;;;;;;;;5052948;28;20104;-65
2021/09/04 01:57:03;;;;;;;44.92;32.33;;;;;;;;;;5035587;28;20017;-65
2021/09/04 01:59:29;;;;;;;43.40;32.97;;;;;;;;;;5052878;28;20481;-65
2021/09/04 02:01:55;;;;;;;44.65;30.73;;;;;;;;;;5052935;28;20075;-65
2021/09/04 02:04:21;;;;;;;43.67;30.30;;;;;;;;;;5052664;28;20029;-65
2021/09/04 02:06:47;;;;;;;44.03;30.35;;;;;;;;;;5052875;28;20083;-65
2021/09/04 02:09:13;;;;;;;39.53;30.80;;;;;;;;;;5035190;28;20029;-65
2021/09/04 02:11:39;;;;;;;39.05;29.33;;;;;;;;;;5034821;28;20139;-65
2021/09/04 02:14:05;;;;;;;40.95;30.58;;;;;;;;;;5052229;28;20036;-65
2021/09/04 02:16:31;;;;;;;41.58;30.33;;;;;;;;;;5034801;28;20400;-65
2021/09/04 02:18:57;;;;;;;39.60;28.23;;;;;;;;;;5052249;28;20029;-65
2021/09/04 02:21:23;;;;;;;38.33;28.73;;;;;;;;;;5034401;28;20074;-65
2021/09/04 02:23:49;;;;;;;42.60;28.92;;;;;;;;;;5052322;28;20021;-66
2021/09/04 02:26:15;;;;;;;38.10;27.77;;;;;;;;;;5034572;28;20408;-65
2021/09/04 02:28:41;;;;;;;36.75;26.88;;;;;;;;;;5052408;28;20036;-65
2021/09/04 02:31:07;;;;;;;39.83;27.42;;;;;;;;;;5052606;28;20106;-65
2021/09/04 02:33:33;;;;;;;38.33;27.40;;;;;;;;;;5052268;28;20024;-66
2021/09/04 02:35:59;;;;;;;42.17;29.13;;;;;;;;;;5034675;28;20021;-65
2021/09/04 02:38:25;;;;;;;35.50;27.00;;;;;;;;;;5052267;28;20065;-65
2021/09/04 02:40:51;;;;;;;37.38;26.95;;;;;;;;;;5051359;28;20071;-65
2021/09/04 02:43:17;;;;;;;39.83;29.13;;;;;;;;;;5034364;28;20074;-65
2021/09/04 02:45:43;;;;;;;36.35;26.23;;;;;;;;;;5034447;28;20047;-64
2021/09/04 02:48:09;;;;;;;41.53;28.80;;;;;;;;;;5034458;28;20025;-66
2021/09/04 02:50:35;;;;;;;37.35;28.83;;;;;;;;;;5052131;28;20048;-65
2021/09/04 02:53:03;;;;;;;39.10;27.50;;;;;;;;;;5052057;28;20016;-65
2021/09/04 02:55:31;;;;;;;39.10;27.52;;;;;;;;;;5051927;28;20484;-65
2021/09/04 02:57:57;;;;;;;41.15;29.10;;;;;;;;;;5052049;28;20104;-65
2021/09/04 03:00:23;;;;;;;39.20;26.83;;;;;;;;;;5051779;28;20444;-65
2021/09/04 03:02:50;;;;;;;39.78;27.30;;;;;;;;;;5033432;28;20028;-65
2021/09/04 03:05:18;;;;;;;39.53;28.15;;;;;;;;;;5051753;28;20017;-65
2021/09/04 03:07:44;;;;;;;43.17;27.80;;;;;;;;;;5052356;28;20057;-65
2021/09/04 03:10:10;;;;;;;39.28;27.92;;;;;;;;;;5034243;28;20310;-65
2021/09/04 03:12:36;;;;;;;36.83;26.63;;;;;;;;;;5051921;28;20108;-65
2021/09/04 03:15:03;;;;;;;38.05;27.23;;;;;;;;;;5034053;28;20028;-66
2021/09/04 03:17:29;;;;;;;40.80;28.42;;;;;;;;;;5051748;28;20392;-65
2021/09/04 03:19:55;;;;;;;38.72;27.67;;;;;;;;;;5033577;28;20096;-65
2021/09/04 03:22:20;;;;;;;45.85;25.63;;;;;;;;;;5034552;28;20024;-65
2021/09/04 03:24:46;;;;;;;36.20;25.67;;;;;;;;;;5051501;28;20028;-65
2021/09/04 03:27:12;;;;;;;38.55;27.60;;;;;;;;;;5054421;28;20537;-65
2021/09/04 03:29:38;;;;;;;37.97;25.95;;;;;;;;;;5038144;28;20036;-66
2021/09/04 03:32:05;;;;;;;37.00;26.13;;;;;;;;;;5056038;28;20025;-65
2021/09/04 03:34:30;;;;;;;35.92;26.98;;;;;;;;;;5037573;28;20029;-65
2021/09/04 03:36:56;;;;;;;41.58;27.02;;;;;;;;;;5037631;28;20037;-65
2021/09/04 03:39:22;;;;;;;38.53;27.60;;;;;;;;;;5055698;28;20013;-65
2021/09/04 03:41:48;;;;;;;43.75;28.60;;;;;;;;;;5038017;28;20021;-65
2021/09/04 03:44:14;;;;;;;39.85;27.38;;;;;;;;;;5055482;28;20027;-65
2021/09/04 03:46:40;;;;;;;40.60;27.63;;;;;;;;;;5055577;28;20489;-65
2021/09/04 03:49:06;;;;;;;38.80;26.67;;;;;;;;;;5055440;28;20032;-66
2021/09/04 03:51:32;;;;;;;42.97;28.42;;;;;;;;;;5055419;28;20025;-65
2021/09/04 03:53:59;;;;;;;44.40;29.42;;;;;;;;;;5054979;28;20057;-65
2021/09/04 03:56:25;;;;;;;39.55;26.67;;;;;;;;;;5037073;28;20053;-65
2021/09/04 03:58:51;;;;;;;41.15;27.95;;;;;;;;;;5054797;28;20032;-65
2021/09/04 04:01:18;;;;;;;39.95;28.48;;;;;;;;;;5037594;28;20033;-66
2021/09/04 04:03:44;;;;;;;41.97;30.10;;;;;;;;;;5054969;28;20032;-65
2021/09/04 04:06:10;;;;;;;44.25;30.98;;;;;;;;;;5055238;28;20029;-65
2021/09/04 04:08:36;;;;;;;46.85;31.27;;;;;;;;;;5055277;28;20480;-65
2021/09/04 04:11:06;;;;;;;46.90;31.05;;;;;;;;;;5037561;28;20039;-65
2021/09/04 04:13:32;;;;;;;43.55;29.90;;;;;;;;;;5036824;28;20021;-65
2021/09/04 04:15:58;;;;;;;47.90;30.92;;;;;;;;;;5036658;28;20032;-65
2021/09/04 04:18:24;;;;;;;51.05;34.80;;;;;;;;;;5036926;28;20123;-66
2021/09/04 04:20:50;;;;;;;51.65;35.63;;;;;;;;;;5055030;28;20021;-65
2021/09/04 04:23:16;;;;;;;48.20;34.25;;;;;;;;;;5036876;28;20028;-65
2021/09/04 04:25:42;;;;;;;51.47;34.33;;;;;;;;;;5036917;28;20636;-65
2021/09/04 04:28:08;;;;;;;48.22;34.47;;;;;;;;;;5037072;28;20028;-65
2021/09/04 04:30:34;;;;;;;49.25;36.45;;;;;;;;;;5037076;28;20120;-65
2021/09/04 04:33:00;;;;;;;58.53;35.92;;;;;;;;;;5036795;28;20060;-65
2021/09/04 04:35:26;;;;;;;52.30;38.15;;;;;;;;;;5036526;28;20029;-65
2021/09/04 04:37:52;;;;;;;50.20;35.55;;;;;;;;;;5053098;28;20484;-65
2021/09/04 04:40:18;;;;;;;48.70;35.90;;;;;;;;;;5036694;28;20078;-66
2021/09/04 04:42:44;;;;;;;49.75;33.80;;;;;;;;;;5054770;28;20028;-65
2021/09/04 04:45:10;;;;;;;48.40;31.73;;;;;;;;;;5036521;28;20017;-66
2021/09/04 04:47:36;;;;;;;42.67;30.42;;;;;;;;;;5054293;28;20047;-66
2021/09/04 04:50:02;;;;;;;40.83;29.52;;;;;;;;;;5054528;28;20025;-65
2021/09/04 04:52:28;;;;;;;39.03;28.48;;;;;;;;;;5054299;28;20068;-65
2021/09/04 04:54:54;;;;;;;43.75;31.25;;;;;;;;;;5054086;28;20056;-65
2021/09/04 04:57:20;;;;;;;41.35;31.08;;;;;;;;;;5053641;28;20480;-65
2021/09/04 04:59:46;;;;;;;39.65;28.35;;;;;;;;;;5053779;28;20092;-65
2021/09/04 05:02:12;;;;;;;35.38;25.58;;;;;;;;;;5054265;28;20068;-65
2021/09/04 05:04:38;;;;;;;38.97;26.15;;;;;;;;;;5036892;28;20028;-64
2021/09/04 05:07:04;;;;;;;37.17;26.52;;;;;;;;;;5054077;28;20029;-64
2021/09/04 05:09:30;;;;;;;41.70;27.65;;;;;;;;;;5053977;28;20028;-64
2021/09/04 05:11:56;;;;;;;37.75;26.30;;;;;;;;;;5053946;28;20029;-64
2021/09/04 05:14:22;;;;;;;34.63;25.75;;;;;;;;;;5035855;28;20033;-64
2021/09/04 05:16:48;;;;;;;40.22;27.48;;;;;;;;;;5053408;28;20068;-64
2021/09/04 05:19:14;;;;;;;40.70;27.52;;;;;;;;;;5053760;28;20017;-64
2021/09/04 05:21:40;;;;;;;36.13;26.10;;;;;;;;;;5053499;28;20449;-64
2021/09/04 05:24:06;;;;;;;36.15;25.83;;;;;;;;;;5035455;28;20078;-64
2021/09/04 05:26:31;;;;;;;39.17;26.67;;;;;;;;;;5053695;28;20416;-64
2021/09/04 05:28:57;;;;;;;34.63;25.90;;;;;;;;;;5053373;28;20086;-65
2021/09/04 05:31:23;;;;;;;32.95;25.67;;;;;;;;;;5053438;28;20366;-64
2021/09/04 05:33:49;;;;;;;36.58;25.38;;;;;;;;;;5021732;28;20021;-64
2021/09/04 05:36:15;;;;;;;33.55;23.88;;;;;;;;;;5033207;28;20396;-64
2021/09/04 05:38:41;;;;;;;33.40;25.52;;;;;;;;;;5035348;28;20071;-64
2021/09/04 05:41:09;;;;;;;33.20;23.45;;;;;;;;;;5046024;28;20040;-64
2021/09/04 05:43:35;;;;;;;34.13;23.52;;;;;;;;;;5015139;28;20509;-64
2021/09/04 05:46:01;;;;;;;35.67;25.17;;;;;;;;;;5033296;28;20104;-64
2021/09/04 05:48:27;;;;;;;34.70;23.63;;;;;;;;;;5015275;28;20489;-64
2021/09/04 05:50:53;;;;;;;31.48;22.83;;;;;;;;;;5016632;28;20029;-63
2021/09/04 05:53:19;;;;;;;32.22;23.77;;;;;;;;;;5033544;28;20096;-64
2021/09/04 05:55:45;;;;;;;35.42;24.08;;;;;;;;;;5033123;28;20069;-63
2021/09/04 05:58:11;;;;;;;36.45;25.63;;;;;;;;;;5033067;28;20036;-64
2021/09/04 06:00:37;;;;;;;34.65;24.90;;;;;;;;;;5033055;28;20077;-64
2021/09/04 06:03:03;;;;;;;34.25;24.45;;;;;;;;;;5032795;28;20053;-64
2021/09/04 06:05:31;;;;;;;35.33;25.33;;;;;;;;;;5015086;28;20460;-64
2021/09/04 06:07:57;;;;;;;38.72;26.27;;;;;;;;;;5049685;28;20052;-65
2021/09/04 06:10:23;;;;;;;34.72;25.25;;;;;;;;;;5034958;28;20065;-64
2021/09/04 06:12:49;;;;;;;36.30;24.73;;;;;;;;;;5033956;28;20029;-64
2021/09/04 06:15:15;;;;;;;34.13;24.20;;;;;;;;;;5034779;28;20064;-65
2021/09/04 06:17:41;;;;;;;37.97;25.00;;;;;;;;;;5052599;28;20052;-64
2021/09/04 06:20:07;;;;;;;35.38;25.60;;;;;;;;;;5052530;28;20021;-65
2021/09/04 06:22:33;;;;;;;32.20;24.88;;;;;;;;;;5052343;28;20025;-64
2021/09/04 06:24:59;;;;;;;36.83;25.38;;;;;;;;;;5034352;28;20025;-64
2021/09/04 06:27:25;;;;;;;35.45;26.35;;;;;;;;;;5034677;28;20045;-64
2021/09/04 06:29:51;;;;;;;35.53;26.52;;;;;;;;;;5034533;28;20028;-64
2021/09/04 06:32:17;;;;;;;36.08;25.85;;;;;;;;;;5034674;28;20385;-64
2021/09/04 06:34:43;;;;;;;35.67;26.88;;;;;;;;;;5022781;28;20029;-64
2021/09/04 06:37:09;;;;;;;35.15;25.98;;;;;;;;;;5032529;28;20408;-64
2021/09/04 06:39:36;;;;;;;36.35;27.75;;;;;;;;;;5014784;28;20434;-64
2021/09/04 06:42:02;;;;;;;35.20;26.38;;;;;;;;;;5014598;28;20468;-64
2021/09/04 06:44:28;;;;;;;35.90;26.67;;;;;;;;;;5014322;28;20017;-65
2021/09/04 06:46:54;;;;;;;35.92;27.17;;;;;;;;;;5014118;28;20060;-65
2021/09/04 06:49:20;;;;;;;37.47;26.88;;;;;;;;;;5032662;28;20478;-65
2021/09/04 06:51:46;;;;;;;36.67;26.15;;;;;;;;;;5031448;28;20041;-68
2021/09/04 06:54:11;;;;;;;37.65;28.85;;;;;;;;;;5012966;28;20025;-65
2021/09/04 06:56:37;;;;;;;36.05;27.50;;;;;;;;;;5013738;28;20449;-65
2021/09/04 06:59:03;;;;;;;36.92;28.42;;;;;;;;;;5031716;28;20045;-65
2021/09/04 07:01:30;;;;;;;36.10;28.15;;;;;;;;;;5031165;28;20092;-65
2021/09/04 07:03:55;;;;;;;39.40;29.00;;;;;;;;;;5031880;28;20045;-52
2021/09/04 07:06:21;;;;;;;39.88;29.05;;;;;;;;;;5032367;28;20030;-54
2021/09/04 07:08:47;;;;;;;38.58;28.50;;;;;;;;;;5044726;28;20044;-55
2021/09/04 07:11:13;;;;;;;37.08;28.33;;;;;;;;;;5051224;28;20482;-54
2021/09/04 07:13:40;;;;;;;35.15;28.02;;;;;;;;;;5051473;28;20074;-55
2021/09/04 07:16:06;;;;;;;37.88;31.15;;;;;;;;;;5051860;28;20095;-54
2021/09/04 07:18:32;;;;;;;38.22;29.50;;;;;;;;;;5050899;28;20175;-52
2021/09/04 07:20:58;;;;;;;37.33;29.13;;;;;;;;;;5051221;28;20022;-52
2021/09/04 07:23:23;;;;;;;36.63;27.70;;;;;;;;;;5051097;28;20029;-49
2021/09/04 07:25:49;;;;;;;36.33;30.00;;;;;;;;;;5033148;28;20115;-53
2021/09/04 07:28:15;;;;;;;37.38;28.70;;;;;;;;;;5051602;28;20024;-50
2021/09/04 07:30:41;;;;;;;36.70;29.15;;;;;;;;;;5051377;28;20542;-51
2021/09/04 07:33:07;;;;;;;39.08;31.13;;;;;;;;;;5033720;28;20064;-57
2021/09/04 07:35:33;;;;;;;37.47;28.90;;;;;;;;;;5041932;28;20052;-50
2021/09/04 07:37:59;;;;;;;41.78;30.75;;;;;;;;;;5041023;28;20112;-51
2021/09/04 07:40:25;;;;;;;39.38;30.60;;;;;;;;;;5040103;28;20021;-52
2021/09/04 07:42:51;;;;;;;39.05;31.60;;;;;;;;;;5037694;28;20026;-53
2021/09/04 07:45:17;;;;;;;40.40;31.27;;;;;;;;;;5040385;28;20066;-53
2021/09/04 07:47:43;;;;;;;37.03;31.58;;;;;;;;;;5019752;28;20056;-52
2021/09/04 07:50:09;;;;;;;38.33;30.98;;;;;;;;;;5042119;28;20055;-51
2021/09/04 07:52:35;;;;;;;37.78;31.92;;;;;;;;;;5035915;28;20431;-50
2021/09/04 07:55:01;;;;;;;38.58;31.67;;;;;;;;;;5035638;28;20107;-55
2021/09/04 07:57:27;;;;;;;39.05;33.20;;;;;;;;;;5049941;28;20116;-52
2021/09/04 07:59:56;;;;;;;38.75;31.80;;;;;;;;;;5051416;28;20025;-53
2021/09/04 08:02:21;;;;;;;37.47;31.17;;;;;;;;;;5051484;28;20029;-53
2021/09/04 08:04:47;;;;;;;35.90;30.92;;;;;;;;;;5049763;28;20108;-52
2021/09/04 08:07:13;;;;;;;39.47;30.63;;;;;;;;;;5039885;28;20094;-55
2021/09/04 08:09:39;;;;;;;36.78;30.17;;;;;;;;;;5040239;28;20063;-53
2021/09/04 08:12:05;;;;;;;36.22;30.27;;;;;;;;;;5026713;28;20358;-52
2021/09/04 08:14:31;;;;;;;38.08;30.58;;;;;;;;;;5043326;28;20018;-50
2021/09/04 08:16:57;;;;;;;37.35;30.65;;;;;;;;;;5044210;28;20025;-50
2021/09/04 08:19:23;;;;;;;36.78;30.48;;;;;;;;;;5026573;28;20062;-50
2021/09/04 08:21:49;;;;;;;39.88;29.90;;;;;;;;;;5044715;28;20032;-50
2021/09/04 08:24:15;;;;;;;34.83;30.85;;;;;;;;;;5041834;28;20025;-54
2021/09/04 08:26:43;;;;;;;37.40;30.30;;;;;;;;;;5043469;28;20018;-55
2021/09/04 08:29:09;;;;;;;33.67;28.83;;;;;;;;;;5044105;28;20435;-55
2021/09/04 08:31:35;;;;;;;33.10;29.33;;;;;;;;;;5022200;28;20424;-51
2021/09/04 08:34:01;;;;;;;36.45;29.50;;;;;;;;;;5028125;28;20037;-54
2021/09/04 08:36:27;;;;;;;36.67;30.00;;;;;;;;;;5053265;28;20055;-50
2021/09/04 08:38:53;;;;;;;35.60;29.77;;;;;;;;;;5029715;28;20022;-54
2021/09/04 08:41:19;;;;;;;36.53;29.60;;;;;;;;;;5044554;28;20025;-50
2021/09/04 08:43:46;;;;;;;35.88;28.85;;;;;;;;;;5042854;28;20021;-50
2021/09/04 08:46:14;;;;;;;36.67;30.42;;;;;;;;;;5044699;28;20017;-54
2021/09/04 08:48:40;;;;;;;36.75;30.85;;;;;;;;;;5023714;28;20025;-53
2021/09/04 08:51:06;;;;;;;36.88;30.73;;;;;;;;;;5043077;28;20104;-52
2021/09/04 08:53:32;;;;;;;39.28;31.80;;;;;;;;;;5042689;28;20077;-53
2021/09/04 08:55:58;;;;;;;37.22;30.10;;;;;;;;;;5050607;28;20435;-56
2021/09/04 08:58:24;;;;;;;34.53;30.42;;;;;;;;;;5053956;28;20029;-54
2021/09/04 09:00:50;;;;;;;35.30;29.23;;;;;;;;;;5054007;28;20025;-54
2021/09/04 09:03:22;;;;;;;33.30;29.70;;;;;;;;;;5053659;28;20036;-51
2021/09/04 09:05:48;;;;;;;33.47;28.85;;;;;;;;;;5053511;28;20031;-51
2021/09/04 09:08:32;;;;;;;35.33;28.95;;;;;;;;;;5053850;28;20024;-55
2021/09/04 09:10:59;;;;;;;33.20;29.63;;;;;;;;;;5035436;28;20021;-51
2021/09/04 09:13:26;;;;;;;32.42;28.92;;;;;;;;;;5035718;28;20029;-51
2021/09/04 09:15:55;;;;;;;32.83;28.70;;;;;;;;;;5053686;28;20025;-52
2021/09/04 09:18:25;;;;;;;31.20;26.90;;;;;;;;;;5053221;28;20033;-65
2021/09/04 09:21:00;;;;;;;31.42;28.13;;;;;;;;;;5035906;28;20086;-65
2021/09/04 09:23:26;;;;;;;32.72;28.23;;;;;;;;;;5052874;28;20017;-65
2021/09/04 09:25:52;;;;;;;31.55;27.08;;;;;;;;;;5034975;28;20036;-65
2021/09/04 09:28:20;;;;;;;31.92;27.13;;;;;;;;;;5053723;28;20028;-65
2021/09/04 09:30:45;;;;;;;32.38;26.55;;;;;;;;;;5053304;28;20052;-62
2021/09/04 09:33:13;;;;;;;29.58;26.27;;;;;;;;;;5053180;28;20099;-63
2021/09/04 09:35:44;;;;;;;31.92;27.42;;;;;;;;;;5053398;28;20413;-65
2021/09/04 09:38:11;;;;;;;31.00;25.80;;;;;;;;;;5035394;28;20056;-65
2021/09/04 09:40:38;;;;;;;31.98;26.63;;;;;;;;;;5053055;28;20475;-63
2021/09/04 09:43:14;;;;;;;31.08;27.77;;;;;;;;;;5052993;28;20028;-63
2021/09/04 09:45:41;;;;;;;30.80;27.05;;;;;;;;;;5034633;28;20021;-63
2021/09/04 09:48:07;;;;;;;28.58;25.48;;;;;;;;;;5050393;28;20065;-65
2021/09/04 09:50:36;;;;;;;30.80;26.95;;;;;;;;;;5023964;28;20037;-65
2021/09/04 09:53:04;;;;;;;30.30;26.20;;;;;;;;;;5032306;28;20021;-62
2021/09/04 09:55:30;;;;;;;31.85;27.15;;;;;;;;;;5014730;28;20032;-66
2021/09/04 09:57:59;;;;;;;30.15;26.98;;;;;;;;;;5032048;28;20385;-63
2021/09/04 10:00:29;;;;;;;33.78;28.65;;;;;;;;;;5034566;28;20025;-63
2021/09/04 10:03:00;;;;;;;30.98;25.33;;;;;;;;;;5052322;28;20021;-64
2021/09/04 10:05:26;;;;;;;33.97;26.63;;;;;;;;;;5034201;28;20082;-64
2021/09/04 10:07:57;;;;;;;30.20;26.55;;;;;;;;;;5028598;28;20022;-64
2021/09/04 10:10:24;;;;;;;32.83;25.27;;;;;;;;;;5032481;28;20037;-63
2021/09/04 10:12:50;;;;;;;29.25;25.48;;;;;;;;;;5032745;28;20026;-64
2021/09/04 10:15:17;;;;;;;28.77;25.52;;;;;;;;;;5034782;28;20032;-63
2021/09/04 10:17:44;;;;;;;28.98;25.25;;;;;;;;;;5025585;28;20020;-63
2021/09/04 10:20:11;;;;;;;31.15;24.65;;;;;;;;;;5052363;28;20102;-63
2021/09/04 10:22:38;;;;;;;29.15;25.85;;;;;;;;;;5034085;28;20021;-63
2021/09/04 10:25:13;;;;;;;29.10;24.83;;;;;;;;;;4699339;28;9999743;-63
2021/09/04 10:27:42;;;;;;;33.30;26.95;;;;;;;;;;5047556;28;20032;-65
2021/09/04 10:30:33;;;;;;;28.08;24.05;;;;;;;;;;5049519;28;20059;-65
2021/09/04 10:33:02;;;;;;;27.42;23.38;;;;;;;;;;5043545;28;20047;-65
2021/09/04 10:35:47;;;;;;;28.30;24.20;;;;;;;;;;5043464;28;20020;-65
2021/09/04 10:38:18;;;;;;;28.90;24.95;;;;;;;;;;5036751;28;20099;-65
2021/09/04 10:40:48;;;;;;;28.58;23.48;;;;;;;;;;5031184;28;20052;-64
2021/09/04 10:43:15;;;;;;;27.50;24.33;;;;;;;;;;5027742;28;20112;-64
2021/09/04 10:45:43;;;;;;;29.33;24.58;;;;;;;;;;5019853;28;20034;-64
2021/09/04 10:48:19;;;;;;;28.05;24.52;;;;;;;;;;5039135;28;20033;-65
2021/09/04 10:51:02;;;;;;;30.30;25.05;;;;;;;;;;5030516;28;20036;-65
2021/09/04 10:53:44;;;;;;;27.55;23.42;;;;;;;;;;5030103;28;20179;-63
2021/09/04 10:56:20;;;;;;;26.75;23.85;;;;;;;;;;5048018;28;20576;-65
2021/09/04 10:58:46;;;;;;;27.55;23.65;;;;;;;;;;5031002;28;20045;-65
2021/09/04 11:01:17;;;;;;;28.42;23.58;;;;;;;;;;5051691;28;20025;-64
2021/09/04 11:03:43;;;;;;;27.58;23.75;;;;;;;;;;5051547;28;20041;-64
2021/09/04 11:06:18;;;;;;;29.30;24.40;;;;;;;;;;5049976;28;20115;-64
2021/09/04 11:08:45;;;;;;;26.17;22.63;;;;;;;;;;5049357;28;20560;-66
2021/09/04 11:11:19;;;;;;;27.33;22.83;;;;;;;;;;5048368;28;20025;-64
2021/09/04 11:13:52;;;;;;;28.33;22.88;;;;;;;;;;5031359;28;20025;-64
2021/09/04 11:16:33;;;;;;;26.02;23.02;;;;;;;;;;5049443;28;20040;-65
2021/09/04 11:19:18;;;;;;;27.48;23.23;;;;;;;;;;5049478;28;20366;-64
2021/09/04 11:21:44;;;;;;;29.08;25.00;;;;;;;;;;5032542;28;20083;-64
2021/09/04 11:24:11;;;;;;;27.45;23.15;;;;;;;;;;5050977;28;20033;-64
2021/09/04 11:26:47;;;;;;;26.20;23.40;;;;;;;;;;5033083;28;20082;-63
2021/09/04 11:29:13;;;;;;;26.40;23.27;;;;;;;;;;5050983;28;20017;-65
2021/09/04 11:31:49;;;;;;;26.38;23.58;;;;;;;;;;5031144;28;20052;-64
2021/09/04 11:34:15;;;;;;;28.40;24.20;;;;;;;;;;5033110;28;20032;-65
2021/09/04 11:36:41;;;;;;;25.52;22.73;;;;;;;;;;5051241;28;20024;-66
2021/09/04 11:39:07;;;;;;;27.00;23.98;;;;;;;;;;4684522;28;10000276;-66
2021/09/04 11:41:43;;;;;;;26.88;24.08;;;;;;;;;;5028262;28;20036;-66
2021/09/04 11:44:10;;;;;;;27.33;24.52;;;;;;;;;;5010645;28;20038;-66
2021/09/04 11:46:37;;;;;;;27.83;24.85;;;;;;;;;;5028256;28;20034;-66
2021/09/04 11:49:03;;;;;;;26.35;23.58;;;;;;;;;;5014379;28;20041;-67
2021/09/04 11:51:29;;;;;;;27.00;24.17;;;;;;;;;;5033695;28;20379;-66
2021/09/04 11:53:59;;;;;;;25.90;23.20;;;;;;;;;;5031468;28;20033;-67
2021/09/04 11:56:28;;;;;;;27.80;23.27;;;;;;;;;;5014293;28;20060;-66
2021/09/04 11:59:03;;;;;;;25.58;22.98;;;;;;;;;;5033040;28;20033;-66
2021/09/04 12:01:29;;;;;;;28.73;24.20;;;;;;;;;;5031961;28;20030;-66
2021/09/04 12:03:56;;;;;;;26.33;23.52;;;;;;;;;;5031487;28;20464;-66
2021/09/04 12:06:22;;;;;;;25.70;23.10;;;;;;;;;;5014070;28;20400;-66
2021/09/04 12:08:48;;;;;;;26.52;23.65;;;;;;;;;;5013995;28;20029;-66
2021/09/04 12:11:14;;;;;;;26.35;23.75;;;;;;;;;;5032889;28;20116;-67
2021/09/04 12:13:40;;;;;;;27.02;24.25;;;;;;;;;;5031670;28;20097;-66
2021/09/04 12:16:08;;;;;;;27.60;24.83;;;;;;;;;;5015323;28;20346;-67
2021/09/04 12:18:46;;;;;;;26.33;23.63;;;;;;;;;;5034192;28;20029;-66
2021/09/04 12:21:12;;;;;;;;;;;;;;;;;;5016884;28;20489;-67
2021/09/04 12:23:44;;;;;;;26.30;22.67;;;;;;;;;;5016085;28;19993;-66
2021/09/04 12:26:10;;;;;;;25.13;22.63;;;;;;;;;;4669970;28;10000552;-65
2021/09/04 12:28:36;;;;;;;25.17;22.60;;;;;;;;;;5031739;28;20346;-66
2021/09/04 12:31:05;;;;;;;26.58;23.60;;;;;;;;;;5013774;28;20025;-66
2021/09/04 12:33:32;;;;;;;27.05;24.35;;;;;;;;;;5015129;28;20029;-66
2021/09/04 12:35:59;;;;;;;26.00;23.38;;;;;;;;;;5052550;28;20037;-65
2021/09/04 12:38:27;;;;;;;26.98;24.15;;;;;;;;;;5071467;28;20028;-65
2021/09/04 12:41:09;;;;;;;26.10;23.02;;;32.10;92.60;;;;;;5071031;28;20025;-70
2021/09/04 12:43:48;;;;;;;25.80;23.08;;;;;;;;;;5052899;28;20043;-65
2021/09/04 12:46:24;;;;;;;26.38;23.55;;;;;;;;;;5071220;28;20031;-66
2021/09/04 12:48:50;;;;;;;25.42;22.80;;;;;;;;;;5051881;28;20055;-66
2021/09/04 12:51:16;;;;;;;26.40;23.70;;;31.70;96.30;;;;;;5030909;28;20377;-66
2021/09/04 12:53:43;;;;;;;26.15;23.52;;;32.20;93.80;;;;;;5045247;28;20106;-66
2021/09/04 12:56:09;;;;;;;27.10;24.50;;;31.80;94.30;;;;;;5050483;28;20029;-66
2021/09/04 12:58:35;;;;;;;25.45;22.95;;;31.70;93.50;;;;;;5031062;28;20361;-66
2021/09/04 13:01:18;;;;;;;27.23;23.80;;;32.30;94.00;;;;;;5050536;28;20485;-66
2021/09/04 13:03:44;;;;;;;25.52;22.98;;;32.20;93.80;;;;;;5050574;28;20032;-65
2021/09/04 13:06:10;;;;;;;25.70;23.20;;;32.30;94.70;;;;;;5050825;28;20069;-66
2021/09/04 13:08:35;;;;;;;26.63;23.90;;;32.10;93.60;;;;;;5048973;28;20118;-67
2021/09/04 13:11:01;;;;;;;25.48;22.88;;;32.20;93.40;;;;;;5020084;28;20393;-66
2021/09/04 13:13:28;;;;;;;25.88;23.25;;;;;;;;;;5030577;28;20129;-66
2021/09/04 13:15:54;;;;;;;26.67;24.02;;;32.60;93.10;;;;;;5030521;28;20347;-66
2021/09/04 13:18:20;;;;;;;25.30;22.70;;;;;;;;;;5012912;28;20048;-66
2021/09/04 13:20:46;;;;;;;24.33;21.90;;;;;;;;;;5030556;28;20033;-66
2021/09/04 13:23:12;;;;;;;24.17;21.77;;;;;;;;;;5014556;28;20013;-66
2021/09/04 13:25:39;;;;;;;24.10;21.63;;;;;;;;;;5033291;28;20013;-67
2021/09/04 13:28:05;;;;;;;24.52;22.02;;;32.60;93.20;;;;;;5034493;28;20294;-65
2021/09/04 13:30:30;;;;;;;25.20;22.52;;;31.60;92.20;;;;;;5033005;28;20088;-65
2021/09/04 13:32:56;;;;;;;25.00;22.50;;;32.60;93.20;;;;;;5014906;28;20109;-65
2021/09/04 13:35:21;;;;;;;23.98;21.48;;;31.80;91.70;;;;;;5046108;28;20021;-65
2021/09/04 13:37:48;;;;;;;25.50;22.88;;;32.30;92.60;;;;;;5035025;28;20033;-65
2021/09/04 13:40:13;;;;;;;25.45;22.88;;;32.90;93.70;;;;;;5052781;28;20071;-66
2021/09/04 13:42:39;;;;;;;25.48;22.88;;;32.50;92.30;;;;;;5052955;28;20025;-65
2021/09/04 13:45:05;;;;;;;23.98;21.33;;;33.50;92.40;;;;;;5034878;28;20017;-65
2021/09/04 13:47:30;;;;;;;24.25;21.63;;;34.30;91.60;;;;;;5035055;28;20024;-65
2021/09/04 13:49:56;;;;;;;25.75;22.60;;;33.40;92.10;;;;;;5023152;28;20037;-65
2021/09/04 13:52:21;;;;;;;23.58;20.98;;;34.70;91.00;;;;;;5015097;28;20071;-66
2021/09/04 13:54:47;;;;;;;23.40;21.00;;;34.70;91.30;;;;;;5014686;28;20122;-65
2021/09/04 13:57:13;;;;;;;23.88;21.48;;;;;;;;;;5033556;28;20444;-66
2021/09/04 13:59:39;;;;;;;23.45;21.05;;;;;;;;;;5024099;28;20021;-63
2021/09/04 14:02:05;;;;;;;23.98;21.55;;;;;;;;;;5043013;28;20029;-64
2021/09/04 14:04:31;;;;;;;24.70;22.20;;;;;;;;;;5040530;28;20030;-63
2021/09/04 14:06:57;;;;;;;24.88;22.27;;;35.40;91.00;;;;;;5041841;28;20459;-66
2021/09/04 14:09:23;;;;;;;24.77;22.15;;;34.50;90.00;;;;;;5040575;28;20087;-61